createdAt,value
2018-12-16T00:01:41.696Z,94728.32
2018-12-16T00:04:10.601Z,94707.53
2018-12-16T00:06:39.175Z,94696.45
2018-12-16T00:09:07.612Z,94709.53
2018-12-16T00:11:36.907Z,94714.95
2018-12-16T00:14:05.406Z,94719.00
2018-12-16T00:16:33.640Z,94723.66
2018-12-16T00:19:02.019Z,94719.58
2018-12-16T00:21:31.372Z,94721.59
2018-12-16T00:24:00.683Z,94722.56
2018-12-16T00:26:40.028Z,94719.95
2018-12-16T00:29:08.484Z,94719.77
2018-12-16T00:31:36.946Z,94725.69
2018-12-16T00:34:05.248Z,94725.89
2018-12-16T00:36:33.565Z,94727.33
2018-12-16T00:39:01.964Z,94725.84
2018-12-16T00:41:30.136Z,94729.06
2018-12-16T00:43:58.413Z,94721.02
2018-12-16T00:46:26.676Z,94719.97
2018-12-16T00:48:55.066Z,94723.42
2018-12-16T00:51:23.779Z,94714.91
2018-12-16T00:53:52.079Z,94723.14
2018-12-16T00:56:20.563Z,94720.11
2018-12-16T00:58:48.969Z,94722.56
2018-12-16T01:01:17.450Z,94730.64
2018-12-16T01:03:45.751Z,94732.43
2018-12-16T01:06:13.983Z,94725.80
2018-12-16T01:08:42.441Z,94726.20
2018-12-16T01:11:10.679Z,94725.01
2018-12-16T01:13:39.126Z,94721.59
2018-12-16T01:16:07.431Z,94718.89
2018-12-16T01:18:35.748Z,94708.26
2018-12-16T01:21:04.093Z,94701.00
2018-12-16T01:23:32.372Z,94706.44
2018-12-16T01:26:00.939Z,94706.25
2018-12-16T01:28:29.346Z,94708.33
2018-12-16T01:30:57.700Z,94707.02
2018-12-16T01:33:26.047Z,94695.25
2018-12-16T01:35:54.624Z,94695.78
2018-12-16T01:38:23.018Z,94689.48
2018-12-16T01:40:51.295Z,94684.25
2018-12-16T01:43:19.631Z,94686.52
2018-12-16T01:45:48.043Z,94676.51
2018-12-16T01:48:16.374Z,94672.52
2018-12-16T01:50:44.751Z,94671.70
2018-12-16T01:53:13.100Z,94669.54
2018-12-16T01:55:41.575Z,94668.20
2018-12-16T01:58:09.918Z,94659.66
2018-12-16T02:00:38.943Z,94662.30
2018-12-16T02:03:07.231Z,94659.71
2018-12-16T02:05:35.521Z,94652.70
2018-12-16T02:08:03.911Z,94650.67
2018-12-16T02:10:32.181Z,94650.14
2018-12-16T02:13:00.608Z,94649.77
2018-12-16T02:15:29.059Z,94651.06
2018-12-16T02:17:57.678Z,94658.22
2018-12-16T02:20:25.962Z,94656.17
2018-12-16T02:22:57.072Z,94657.32
2018-12-16T02:25:24.709Z,94649.20
2018-12-16T02:27:53.324Z,94656.39
2018-12-16T02:30:27.329Z,94647.25
2018-12-16T02:32:56.092Z,94651.72
2018-12-16T02:35:24.436Z,94642.30
2018-12-16T02:37:52.869Z,94641.55
2018-12-16T02:40:21.480Z,94643.87
2018-12-16T02:42:49.798Z,94642.27
2018-12-16T02:45:19.391Z,94639.72
2018-12-16T02:47:49.110Z,94623.05
2018-12-16T02:50:17.898Z,94617.47
2018-12-16T02:52:46.533Z,94616.80
2018-12-16T02:55:14.991Z,94619.92
2018-12-16T02:57:43.398Z,94627.44
2018-12-16T03:00:11.944Z,94620.66
2018-12-16T03:02:41.446Z,94622.43
2018-12-16T03:05:09.774Z,94620.80
2018-12-16T03:07:38.349Z,94625.66
2018-12-16T03:10:07.211Z,94618.36
2018-12-16T03:12:35.715Z,94614.47
2018-12-16T03:15:04.358Z,94615.91
2018-12-16T03:17:33.517Z,94620.09
2018-12-16T03:20:02.025Z,94620.00
2018-12-16T03:22:30.479Z,94608.78
2018-12-16T03:24:58.687Z,94607.83
2018-12-16T03:27:27.167Z,94610.00
2018-12-16T03:29:55.490Z,94607.11
2018-12-16T03:32:23.916Z,94617.38
2018-12-16T03:34:52.337Z,94614.69
2018-12-16T03:37:20.629Z,94618.48
2018-12-16T03:39:48.935Z,94622.46
2018-12-16T03:42:17.330Z,94607.57
2018-12-16T03:44:45.664Z,94613.47
2018-12-16T03:47:14.025Z,94615.07
2018-12-16T03:49:42.433Z,94625.12
2018-12-16T03:52:10.918Z,94630.42
2018-12-16T03:54:39.214Z,94633.02
2018-12-16T03:57:07.564Z,94631.73
2018-12-16T03:59:35.910Z,94645.16
2018-12-16T04:02:04.236Z,94647.75
2018-12-16T04:04:32.571Z,94646.32
2018-12-16T04:07:00.892Z,94647.67
2018-12-16T04:09:29.182Z,94640.98
2018-12-16T04:11:57.432Z,94635.23
2018-12-16T04:14:25.608Z,94643.02
2018-12-16T04:16:53.900Z,94656.02
2018-12-16T04:19:22.301Z,94646.56
2018-12-16T04:24:18.840Z,94647.86
2018-12-16T04:26:47.142Z,94656.08
2018-12-16T04:29:15.545Z,94664.39
2018-12-16T04:31:44.064Z,94655.92
2018-12-16T04:34:12.668Z,94669.45
2018-12-16T04:36:41.160Z,94662.98
2018-12-16T04:39:10.154Z,94664.83
2018-12-16T04:41:38.717Z,94669.53
2018-12-16T04:44:07.318Z,94655.63
2018-12-16T04:46:35.861Z,94659.54
2018-12-16T04:49:04.231Z,94658.72
2018-12-16T04:51:39.204Z,94673.28
2018-12-16T04:54:07.681Z,94663.92
2018-12-16T04:56:36.106Z,94676.36
2018-12-16T04:59:04.353Z,94672.56
2018-12-16T05:01:32.673Z,94679.52
2018-12-16T05:04:00.924Z,94674.11
2018-12-16T05:06:29.998Z,94678.61
2018-12-16T05:08:58.401Z,94685.20
2018-12-16T05:11:26.759Z,94681.56
2018-12-16T05:13:55.713Z,94680.44
2018-12-16T05:16:23.853Z,94680.16
2018-12-16T05:18:52.252Z,94680.55
2018-12-16T05:21:20.661Z,94680.40
2018-12-16T05:23:49.005Z,94676.45
2018-12-16T05:26:17.531Z,94686.25
2018-12-16T05:28:46.323Z,94684.33
2018-12-16T05:31:14.949Z,94693.95
2018-12-16T05:33:43.339Z,94706.30
2018-12-16T05:36:11.892Z,94700.05
2018-12-16T05:38:40.373Z,94706.03
2018-12-16T05:41:08.904Z,94711.89
2018-12-16T05:43:37.359Z,94696.80
2018-12-16T05:46:05.737Z,94697.17
2018-12-16T05:48:34.268Z,94697.27
2018-12-16T05:51:02.727Z,94693.44
2018-12-16T05:53:31.023Z,94694.78
2018-12-16T05:55:59.972Z,94687.41
2018-12-16T05:58:28.657Z,94686.99
2018-12-16T06:00:57.077Z,94693.66
2018-12-16T06:03:25.509Z,94691.75
2018-12-16T06:05:54.145Z,94689.19
2018-12-16T06:08:23.503Z,94685.62
2018-12-16T06:10:51.961Z,94698.23
2018-12-16T06:13:20.240Z,94704.44
2018-12-16T06:15:48.454Z,94707.11
2018-12-16T06:18:17.501Z,94698.24
2018-12-16T06:20:45.982Z,94704.75
2018-12-16T06:23:14.273Z,94698.73
2018-12-16T06:25:42.752Z,94708.58
2018-12-16T06:28:11.331Z,94721.14
2018-12-16T06:30:40.215Z,94731.13
2018-12-16T06:33:08.503Z,94721.66
2018-12-16T06:35:37.304Z,94729.41
2018-12-16T06:38:05.610Z,94740.57
2018-12-16T06:40:33.836Z,94756.00
2018-12-16T06:43:01.987Z,94757.60
2018-12-16T06:45:30.564Z,94755.99
2018-12-16T06:47:58.806Z,94748.14
2018-12-16T06:50:27.111Z,94766.17
2018-12-16T06:52:55.420Z,94768.58
2018-12-16T06:55:23.893Z,94765.13
2018-12-16T06:57:52.174Z,94769.96
2018-12-16T07:00:21.308Z,94775.11
2018-12-16T07:02:53.979Z,94771.42
2018-12-16T07:05:22.657Z,94764.61
2018-12-16T07:07:51.189Z,94759.81
2018-12-16T07:10:19.612Z,94761.06
2018-12-16T07:12:48.069Z,94751.84
2018-12-16T07:15:16.647Z,94759.40
2018-12-16T07:17:45.061Z,94754.56
2018-12-16T07:20:13.427Z,94755.17
2018-12-16T07:22:41.881Z,94767.02
2018-12-16T07:25:10.192Z,94775.92
2018-12-16T07:27:39.338Z,94775.38
2018-12-16T07:30:08.441Z,94775.23
2018-12-16T07:32:36.824Z,94774.05
2018-12-16T07:35:05.861Z,94776.16
2018-12-16T07:37:34.238Z,94764.02
2018-12-16T07:40:02.684Z,94767.58
2018-12-16T07:42:31.055Z,94776.72
2018-12-16T07:44:59.492Z,94781.25
2018-12-16T07:47:27.867Z,94799.45
2018-12-16T07:49:56.549Z,94803.87
2018-12-16T07:52:24.850Z,94804.13
2018-12-16T07:54:54.133Z,94796.92
2018-12-16T07:57:22.755Z,94808.84
2018-12-16T07:59:51.770Z,94818.02
2018-12-16T08:02:21.037Z,94837.78
2018-12-16T08:04:49.749Z,94836.62
2018-12-16T08:07:18.333Z,94840.69
2018-12-16T08:09:46.833Z,94833.86
2018-12-16T08:12:15.121Z,94830.28
2018-12-16T08:14:43.721Z,94849.48
2018-12-16T08:17:12.134Z,94847.84
2018-12-16T08:19:40.446Z,94826.66
2018-12-16T08:22:08.816Z,94847.99
2018-12-16T08:24:39.400Z,94864.80
2018-12-16T08:27:07.794Z,94885.51
2018-12-16T08:29:36.853Z,94884.84
2018-12-16T08:32:05.391Z,94865.90
2018-12-16T08:34:33.653Z,94875.02
2018-12-16T08:37:02.215Z,94892.99
2018-12-16T08:39:30.628Z,94896.53
2018-12-16T08:41:59.203Z,94914.62
2018-12-16T08:44:27.829Z,94916.77
2018-12-16T08:46:56.448Z,94928.59
2018-12-16T08:49:25.043Z,94953.08
2018-12-16T08:51:53.513Z,94951.96
2018-12-16T08:54:21.864Z,94950.20
2018-12-16T08:56:50.318Z,94940.08
2018-12-16T08:59:19.661Z,94955.94
2018-12-16T09:01:48.097Z,94957.28
2018-12-16T09:04:16.850Z,94940.94
2018-12-16T09:06:45.158Z,94941.37
2018-12-16T09:09:13.887Z,94951.28
2018-12-16T09:11:42.478Z,94945.94
2018-12-16T09:14:10.878Z,94946.71
2018-12-16T09:16:39.216Z,94953.36
2018-12-16T09:19:07.485Z,94954.30
2018-12-16T09:21:36.082Z,94948.20
2018-12-16T09:24:04.800Z,94948.97
2018-12-16T09:26:34.125Z,94964.59
2018-12-16T09:29:03.165Z,94972.95
2018-12-16T09:31:31.912Z,94971.05
2018-12-16T09:34:00.538Z,94970.50
2018-12-16T09:36:29.119Z,94916.22
2018-12-16T09:38:57.377Z,94961.56
2018-12-16T09:41:26.092Z,94975.64
2018-12-16T09:43:54.656Z,94977.73
2018-12-16T09:46:23.728Z,94993.14
2018-12-16T09:48:52.092Z,95005.09
2018-12-16T09:51:20.787Z,95014.22
2018-12-16T09:53:49.240Z,95015.94
2018-12-16T09:56:17.843Z,95026.38
2018-12-16T09:58:46.255Z,95022.78
2018-12-16T10:01:14.495Z,95016.71
2018-12-16T10:03:42.951Z,95020.30
2018-12-16T10:06:11.637Z,95023.73
2018-12-16T10:08:40.371Z,95025.81
2018-12-16T10:11:08.749Z,95001.52
2018-12-16T10:13:37.034Z,95028.86
2018-12-16T10:16:05.785Z,95022.39
2018-12-16T10:18:34.001Z,95012.34
2018-12-16T10:21:02.275Z,95016.34
2018-12-16T10:23:30.859Z,95007.41
2018-12-16T10:25:59.246Z,95007.19
2018-12-16T10:28:28.643Z,94998.84
2018-12-16T10:30:58.000Z,94998.09
2018-12-16T10:33:26.851Z,95004.92
2018-12-16T10:35:55.363Z,95010.05
2018-12-16T10:38:23.789Z,95007.93
2018-12-16T10:40:52.242Z,95021.05
2018-12-16T10:43:20.649Z,95016.70
2018-12-16T10:45:49.116Z,95022.96
2018-12-16T10:48:17.621Z,95014.63
2018-12-16T10:50:45.879Z,95007.77
2018-12-16T10:53:14.468Z,95017.64
2018-12-16T10:55:43.031Z,95014.22
2018-12-16T10:58:11.585Z,95010.25
2018-12-16T11:01:01.639Z,95012.88
2018-12-16T11:03:30.050Z,95006.80
2018-12-16T11:05:58.843Z,95011.75
2018-12-16T11:08:40.487Z,95023.89
2018-12-16T11:11:22.933Z,95010.79
2018-12-16T11:13:52.770Z,95014.17
2018-12-16T11:16:21.040Z,95006.98
2018-12-16T11:19:04.409Z,95014.39
2018-12-16T11:21:33.846Z,95025.22
2018-12-16T11:24:02.396Z,95018.98
2018-12-16T11:26:34.102Z,95022.19
2018-12-16T11:29:05.644Z,95015.73
2018-12-16T11:31:33.999Z,95012.33
2018-12-16T11:34:15.124Z,94253.32
2018-12-16T11:36:43.496Z,95025.05
2018-12-16T11:39:11.815Z,95020.50
2018-12-16T11:41:40.414Z,95024.50
2018-12-16T11:44:08.901Z,95025.05
2018-12-16T11:46:37.490Z,95019.38
2018-12-16T11:49:06.542Z,95022.19
2018-12-16T11:51:35.922Z,95013.09
2018-12-16T11:54:05.585Z,95025.61
2018-12-16T11:56:34.247Z,95031.13
2018-12-16T11:59:03.105Z,95024.84
2018-12-16T12:01:31.570Z,95028.45
2018-12-16T12:04:02.087Z,95022.77
2018-12-16T12:06:30.847Z,95030.75
2018-12-16T12:08:59.076Z,95030.56
2018-12-16T12:11:27.951Z,95021.81
2018-12-16T12:13:56.427Z,95029.61
2018-12-16T12:16:24.923Z,95041.77
2018-12-16T12:19:00.352Z,95031.71
2018-12-16T12:21:28.998Z,95028.09
2018-12-16T12:23:57.481Z,95034.95
2018-12-16T12:26:25.896Z,95038.92
2018-12-16T12:28:54.293Z,95030.58
2018-12-16T12:31:22.878Z,95033.59
2018-12-16T12:33:51.496Z,95038.71
2018-12-16T12:36:20.106Z,95048.03
2018-12-16T12:38:56.367Z,95045.97
2018-12-16T12:41:24.729Z,95060.38
2018-12-16T12:43:52.980Z,95059.27
2018-12-16T12:46:21.472Z,95073.70
2018-12-16T12:51:37.005Z,95078.64
2018-12-16T12:54:06.727Z,95068.76
2018-12-16T12:56:35.602Z,95077.67
2018-12-16T12:59:04.231Z,95075.77
2018-12-16T13:01:55.587Z,94795.37
2018-12-16T13:04:39.082Z,95073.11
2018-12-16T13:07:11.579Z,95089.48
2018-12-16T13:09:56.490Z,95089.65
2018-12-16T13:12:28.857Z,95087.75
2018-12-16T13:15:36.265Z,95088.12
2018-12-16T13:18:21.310Z,95090.79
2018-12-16T13:21:02.135Z,95092.87
2018-12-16T13:23:45.137Z,95088.52
2018-12-16T13:26:14.882Z,95084.91
2018-12-16T13:28:56.637Z,95086.41
2018-12-16T13:31:39.699Z,95079.01
2018-12-16T13:34:08.126Z,95099.16
2018-12-16T13:36:54.360Z,95092.88
2018-12-16T13:39:46.418Z,95097.27
2018-12-16T13:42:27.870Z,95099.91
2018-12-16T13:45:13.382Z,95098.59
2018-12-16T13:47:42.231Z,95111.30
2018-12-16T13:50:31.154Z,95107.71
2018-12-16T13:52:59.587Z,95113.20
2018-12-16T13:55:28.551Z,95110.53
2018-12-16T13:58:05.308Z,95104.64
2018-12-16T14:00:33.847Z,95105.80
2018-12-16T14:03:02.740Z,95121.01
2018-12-16T14:05:47.827Z,95117.20
2018-12-16T14:08:16.603Z,95116.44
2018-12-16T14:10:57.885Z,95123.27
2018-12-16T14:13:27.164Z,95113.76
2018-12-16T14:15:55.885Z,95118.51
2018-12-16T14:18:37.047Z,95125.36
2018-12-16T14:21:13.461Z,95126.84
2018-12-16T14:23:52.220Z,95118.50
2018-12-16T14:26:31.340Z,95131.79
2018-12-16T14:28:59.796Z,95129.34
2018-12-16T14:31:28.227Z,95134.45
2018-12-16T14:34:04.246Z,95132.36
2018-12-16T14:36:34.526Z,95129.73
2018-12-16T14:39:29.166Z,95128.96
2018-12-16T14:41:57.761Z,95137.31
2018-12-16T14:44:40.083Z,95147.20
2018-12-16T14:47:30.664Z,95142.92
2018-12-16T14:50:11.838Z,95138.82
2018-12-16T14:52:43.206Z,95146.21
2018-12-16T14:55:26.639Z,95142.03
2018-12-16T14:58:02.567Z,95154.19
2018-12-16T15:00:41.455Z,95164.84
2018-12-16T15:03:24.142Z,95164.02
2018-12-16T15:05:52.534Z,95156.06
2018-12-16T15:08:37.875Z,95162.55
2018-12-16T15:11:14.827Z,95168.45
2018-12-16T15:13:50.666Z,95169.52
2018-12-16T15:16:32.659Z,95174.89
2018-12-16T15:19:17.512Z,95170.92
2018-12-16T15:21:46.303Z,95174.41
2018-12-16T15:24:14.622Z,95173.19
2018-12-16T15:26:59.418Z,95172.81
2018-12-16T15:29:42.214Z,94930.94
2018-12-16T15:32:14.577Z,95172.62
2018-12-16T15:34:57.854Z,95188.02
2018-12-16T15:37:39.479Z,95195.41
2018-12-16T15:40:23.059Z,95200.76
2018-12-16T15:43:06.376Z,95200.71
2018-12-16T15:45:47.964Z,95200.55
2018-12-16T15:48:32.778Z,95202.45
2018-12-16T15:51:16.085Z,95197.12
2018-12-16T15:53:59.106Z,95214.19
2018-12-16T15:56:44.515Z,95215.30
2018-12-16T15:59:33.947Z,94883.91
2018-12-16T16:02:14.798Z,95202.38
2018-12-16T16:04:58.173Z,95191.43
2018-12-16T16:07:43.265Z,95198.08
2018-12-16T16:10:26.120Z,95210.57
2018-12-16T16:13:07.783Z,95218.55
2018-12-16T16:15:49.016Z,95215.89
2018-12-16T16:18:26.345Z,95220.03
2018-12-16T16:21:15.849Z,95223.30
2018-12-16T16:24:14.202Z,95220.25
2018-12-16T16:26:57.776Z,95229.00
2018-12-16T16:29:41.536Z,95228.41
2018-12-16T16:32:27.551Z,95228.56
2018-12-16T16:35:08.651Z,95223.65
2018-12-16T16:37:52.050Z,95240.80
2018-12-16T16:40:34.766Z,95210.70
2018-12-16T16:43:30.931Z,95233.14
2018-12-16T16:46:20.362Z,95224.08
2018-12-16T16:48:56.467Z,95229.98
2018-12-16T16:51:39.377Z,95237.68
2018-12-16T16:54:33.613Z,95249.42
2018-12-16T16:57:02.909Z,95240.16
2018-12-16T16:59:45.107Z,95238.98
2018-12-16T17:02:13.601Z,95244.47
2018-12-16T17:05:07.450Z,95253.44
2018-12-16T17:08:04.463Z,95248.58
2018-12-16T17:10:33.170Z,95240.63
2018-12-16T17:13:09.741Z,95231.52
2018-12-16T17:15:45.574Z,95240.70
2018-12-16T17:18:13.971Z,95236.23
2018-12-16T17:20:57.686Z,95254.66
2018-12-16T17:23:39.293Z,95261.16
2018-12-16T17:26:16.440Z,95267.43
2018-12-16T17:28:45.375Z,95275.41
2018-12-16T17:31:35.894Z,95273.58
2018-12-16T17:34:17.425Z,95275.33
2018-12-16T17:36:54.137Z,95272.08
2018-12-16T17:39:22.606Z,95278.34
2018-12-16T17:41:51.115Z,95264.91
2018-12-16T17:44:19.563Z,95258.13
2018-12-16T17:46:47.997Z,95260.34
2018-12-16T17:49:16.611Z,95254.33
2018-12-16T17:51:45.049Z,95256.03
2018-12-16T17:54:13.490Z,95253.69
2018-12-16T17:56:41.877Z,95266.20
2018-12-16T17:59:17.729Z,95267.89
2018-12-16T18:01:43.599Z,95263.65
2018-12-16T18:04:24.473Z,95260.11
2018-12-16T18:06:53.087Z,95264.97
2018-12-16T18:09:21.500Z,95271.80
2018-12-16T18:11:49.928Z,95270.38
2018-12-16T18:14:18.257Z,95270.70
2018-12-16T18:16:46.777Z,95290.25
2018-12-16T18:19:15.047Z,95274.00
2018-12-16T18:21:53.561Z,95264.97
2018-12-16T18:24:25.443Z,95281.64
2018-12-16T18:26:54.039Z,95286.59
2018-12-16T18:29:22.531Z,95283.37
2018-12-16T18:31:51.276Z,95278.14
2018-12-16T18:34:19.596Z,95285.98
2018-12-16T18:36:48.515Z,95277.73
2018-12-16T18:39:17.379Z,95279.91
2018-12-16T18:41:46.219Z,95283.75
2018-12-16T18:44:14.761Z,95281.55
2018-12-16T18:46:43.417Z,95290.20
2018-12-16T18:49:15.251Z,95289.66
2018-12-16T18:51:44.544Z,95281.83
2018-12-16T18:54:13.166Z,95292.13
2018-12-16T18:56:42.009Z,95294.61
2018-12-16T18:59:10.494Z,95286.58
2018-12-16T19:01:38.822Z,95295.00
2018-12-16T19:04:07.094Z,95301.91
2018-12-16T19:06:35.471Z,95312.95
2018-12-16T19:09:10.246Z,95291.34
2018-12-16T19:11:38.556Z,95306.86
2018-12-16T19:14:07.044Z,95303.43
2018-12-16T19:16:36.260Z,95296.60
2018-12-16T19:19:05.297Z,95291.67
2018-12-16T19:21:34.039Z,95285.92
2018-12-16T19:24:02.911Z,95294.45
2018-12-16T19:26:31.557Z,95281.09
2018-12-16T19:29:15.265Z,95280.13
2018-12-16T19:31:44.136Z,95277.28
2018-12-16T19:34:12.602Z,95275.13
2018-12-16T19:37:03.014Z,95267.38
2018-12-16T19:39:40.680Z,95274.22
2018-12-16T19:42:14.489Z,95266.20
2018-12-16T19:44:42.900Z,95271.69
2018-12-16T19:47:22.047Z,95277.20
2018-12-16T19:49:50.744Z,95269.98
2018-12-16T19:52:19.034Z,95261.94
2018-12-16T19:55:00.279Z,95264.51
2018-12-16T19:57:28.758Z,95270.49
2018-12-16T19:59:57.139Z,95269.45
2018-12-16T20:02:25.573Z,95278.28
2018-12-16T20:04:59.926Z,95264.62
2018-12-16T20:07:28.432Z,95264.02
2018-12-16T20:10:03.005Z,95268.55
2018-12-16T20:12:31.515Z,95279.42
2018-12-16T20:15:00.219Z,95278.93
2018-12-16T20:17:28.741Z,95266.93
2018-12-16T20:19:57.100Z,95269.57
2018-12-16T20:22:26.188Z,95257.76
2018-12-16T20:24:54.589Z,95267.95
2018-12-16T20:27:22.857Z,95271.40
2018-12-16T20:29:51.238Z,95273.27
2018-12-16T20:32:19.885Z,95270.30
2018-12-16T20:34:57.953Z,95265.98
2018-12-16T20:37:43.228Z,95268.98
2018-12-16T20:40:11.722Z,95257.15
2018-12-16T20:42:40.519Z,95259.31
2018-12-16T20:45:09.502Z,95267.55
2018-12-16T20:47:38.816Z,95265.67
2018-12-16T20:50:08.214Z,95270.99
2018-12-16T20:52:36.674Z,95276.47
2018-12-16T20:55:06.087Z,95272.53
2018-12-16T20:57:34.496Z,95259.59
2018-12-16T21:00:03.341Z,95267.77
2018-12-16T21:02:31.914Z,95264.20
2018-12-16T21:05:00.495Z,95261.80
2018-12-16T21:07:41.537Z,95255.41
2018-12-16T21:10:10.002Z,95258.91
2018-12-16T21:13:46.339Z,95267.61
2018-12-16T21:16:20.428Z,95282.44
2018-12-16T21:18:48.859Z,95261.31
2018-12-16T21:21:17.628Z,95274.16
2018-12-16T21:23:46.184Z,95271.14
2018-12-16T21:26:14.481Z,95273.45
2018-12-16T21:28:42.797Z,95278.22
2018-12-16T21:31:11.303Z,95278.94
2018-12-16T21:33:39.786Z,95267.53
2018-12-16T21:36:08.107Z,95267.42
2018-12-16T21:38:36.703Z,95260.53
2018-12-16T21:41:05.312Z,95252.81
2018-12-16T21:43:34.870Z,95198.13
2018-12-16T21:46:03.787Z,95244.09
2018-12-16T21:48:32.336Z,95242.26
2018-12-16T21:51:01.373Z,95243.66
2018-12-16T21:53:30.507Z,95254.70
2018-12-16T21:55:59.103Z,95250.52
2018-12-16T21:58:27.623Z,95248.70
2018-12-16T22:00:56.136Z,95253.65
2018-12-16T22:03:25.089Z,95245.45
2018-12-16T22:05:53.486Z,95239.50
2018-12-16T22:08:22.073Z,95240.89
2018-12-16T22:10:51.341Z,95236.22
2018-12-16T22:13:19.980Z,95237.37
2018-12-16T22:15:48.548Z,95226.80
2018-12-16T22:18:17.216Z,95230.73
2018-12-16T22:20:45.943Z,95247.50
2018-12-16T22:23:14.617Z,95246.36
2018-12-16T22:25:43.431Z,95238.21
2018-12-16T22:28:12.372Z,95245.77
2018-12-16T22:30:41.016Z,95244.95
2018-12-16T22:33:09.911Z,95265.05
2018-12-16T22:35:38.312Z,95250.22
2018-12-16T22:38:07.467Z,95250.06
2018-12-16T22:40:35.961Z,95249.02
2018-12-16T22:43:04.499Z,95247.03
2018-12-16T22:45:32.900Z,95238.45
2018-12-16T22:48:01.336Z,95249.14
2018-12-16T22:50:29.854Z,95243.52
2018-12-16T22:52:58.290Z,95237.50
2018-12-16T22:55:26.897Z,95246.97
2018-12-16T22:57:55.723Z,95239.17
2018-12-16T23:00:25.113Z,95233.63
2018-12-16T23:02:54.064Z,95213.70
2018-12-16T23:05:22.556Z,95247.09
2018-12-16T23:07:51.480Z,95256.38
2018-12-16T23:10:20.077Z,95245.63
2018-12-16T23:12:48.877Z,95233.55
2018-12-16T23:15:17.480Z,95241.83
2018-12-16T23:17:46.123Z,95241.73
2018-12-16T23:20:19.796Z,95230.90
2018-12-16T23:22:48.715Z,95225.95
2018-12-16T23:25:28.097Z,95229.89
2018-12-16T23:27:57.101Z,95221.91
2018-12-16T23:30:25.597Z,95231.31
2018-12-16T23:32:54.123Z,95221.59
2018-12-16T23:35:22.706Z,95229.52
2018-12-16T23:37:51.086Z,95231.94
2018-12-16T23:40:19.802Z,95230.19
2018-12-16T23:42:48.087Z,95239.48
2018-12-16T23:45:16.449Z,95232.61
2018-12-16T23:47:45.358Z,95227.61
2018-12-16T23:50:13.633Z,95225.98
2018-12-16T23:52:42.119Z,95231.47
2018-12-16T23:55:10.448Z,95228.04
2018-12-16T23:57:38.816Z,95221.76
